createdAt,value
2018-09-14T00:02:06.962Z,3.17
2018-09-14T00:04:36.205Z,3.90
2018-09-14T00:07:05.396Z,4.00
2018-09-14T00:09:33.678Z,4.10
2018-09-14T00:12:01.934Z,3.40
2018-09-14T00:14:30.237Z,3.63
2018-09-14T00:16:58.485Z,3.03
2018-09-14T00:19:27.084Z,3.43
2018-09-14T00:21:55.380Z,3.13
2018-09-14T00:24:23.656Z,3.37
2018-09-14T00:26:51.884Z,3.50
2018-09-14T00:29:20.149Z,3.40
2018-09-14T00:31:48.684Z,3.57
2018-09-14T00:34:17.218Z,4.10
2018-09-14T00:36:45.502Z,4.27
2018-09-14T00:39:13.922Z,3.80
2018-09-14T00:41:42.363Z,3.97
2018-09-14T00:44:10.762Z,3.67
2018-09-14T00:46:39.102Z,3.67
2018-09-14T00:49:08.197Z,3.33
2018-09-14T00:51:36.508Z,3.60
2018-09-14T00:54:04.817Z,3.40
2018-09-14T00:56:33.052Z,3.53
2018-09-14T00:59:01.319Z,3.63
2018-09-14T01:01:29.686Z,4.20
2018-09-14T01:03:58.079Z,4.07
2018-09-14T01:06:26.379Z,4.73
2018-09-14T01:08:55.604Z,3.90
2018-09-14T01:11:23.970Z,4.20
2018-09-14T01:13:52.321Z,3.60
2018-09-14T01:16:20.643Z,3.77
2018-09-14T01:18:48.932Z,3.70
2018-09-14T01:21:17.203Z,3.73
2018-09-14T01:23:45.746Z,3.40
2018-09-14T01:26:14.033Z,3.30
2018-09-14T01:28:42.291Z,3.90
2018-09-14T01:31:11.526Z,3.57
2018-09-14T01:33:39.741Z,3.60
2018-09-14T01:36:11.498Z,3.63
2018-09-14T01:38:40.596Z,3.30
2018-09-14T01:41:09.201Z,3.43
2018-09-14T01:43:37.398Z,3.50
2018-09-14T01:46:05.686Z,3.33
2018-09-14T01:48:33.977Z,3.23
2018-09-14T01:51:02.236Z,3.40
2018-09-14T01:53:30.462Z,3.20
2018-09-14T01:55:58.735Z,3.40
2018-09-14T01:58:27.014Z,3.90
2018-09-14T02:00:55.392Z,3.17
2018-09-14T02:03:23.659Z,2.97
2018-09-14T02:05:51.962Z,3.27
2018-09-14T02:08:20.197Z,2.50
2018-09-14T02:10:48.461Z,2.70
2018-09-14T02:13:16.685Z,3.43
2018-09-14T02:15:45.721Z,3.50
2018-09-14T02:18:14.061Z,3.40
2018-09-14T02:20:42.602Z,3.07
2018-09-14T02:23:11.120Z,3.10
2018-09-14T02:25:39.820Z,3.47
2018-09-14T02:28:08.139Z,2.77
2018-09-14T02:30:36.884Z,3.20
2018-09-14T02:33:05.216Z,3.10
2018-09-14T02:35:33.824Z,3.47
2018-09-14T02:38:02.622Z,3.50
2018-09-14T02:40:31.090Z,3.70
2018-09-14T02:42:59.399Z,3.33
2018-09-14T02:45:27.678Z,3.40
2018-09-14T02:47:56.703Z,3.43
2018-09-14T02:50:24.949Z,3.83
2018-09-14T02:52:53.281Z,3.90
2018-09-14T02:55:21.600Z,4.47
2018-09-14T02:57:49.861Z,4.57
2018-09-14T03:00:18.207Z,5.03
2018-09-14T03:02:46.484Z,4.53
2018-09-14T03:05:14.796Z,4.53
2018-09-14T03:07:43.098Z,4.53
2018-09-14T03:10:11.462Z,4.43
2018-09-14T03:12:39.827Z,4.67
2018-09-14T03:15:08.234Z,5.07
2018-09-14T03:17:36.695Z,5.80
2018-09-14T03:20:04.997Z,5.50
2018-09-14T03:22:36.628Z,5.30
2018-09-14T03:25:05.513Z,6.40
2018-09-14T03:27:33.870Z,6.30
2018-09-14T03:30:02.233Z,6.40
2018-09-14T03:32:34.161Z,6.67
2018-09-14T03:35:02.394Z,5.73
2018-09-14T03:37:30.716Z,6.10
2018-09-14T03:39:59.087Z,6.33
2018-09-14T03:42:27.357Z,6.23
2018-09-14T03:44:56.503Z,7.00
2018-09-14T03:47:24.793Z,6.40
2018-09-14T03:49:53.510Z,6.40
2018-09-14T03:52:21.797Z,6.60
2018-09-14T03:54:50.033Z,7.00
2018-09-14T03:57:18.419Z,6.97
2018-09-14T03:59:46.738Z,7.37
2018-09-14T04:02:15.401Z,7.40
2018-09-14T04:04:44.004Z,7.57
2018-09-14T04:07:12.417Z,7.63
2018-09-14T04:09:41.039Z,7.83
2018-09-14T04:12:09.428Z,6.97
2018-09-14T04:14:37.805Z,7.60
2018-09-14T04:17:06.100Z,7.43
2018-09-14T04:19:35.134Z,7.90
2018-09-14T04:22:03.917Z,7.70
2018-09-14T04:24:33.062Z,7.70
2018-09-14T04:27:01.289Z,7.50
2018-09-14T04:29:29.556Z,8.53
2018-09-14T04:31:58.330Z,7.53
2018-09-14T04:34:26.909Z,8.70
2018-09-14T04:36:55.371Z,9.90
2018-09-14T04:39:23.867Z,10.60
2018-09-14T04:41:52.160Z,10.13
2018-09-14T04:44:20.377Z,9.60
2018-09-14T04:46:49.126Z,9.87
2018-09-14T04:49:17.381Z,10.47
2018-09-14T04:51:45.601Z,10.20
2018-09-14T04:54:14.218Z,10.83
2018-09-14T04:56:42.604Z,10.00
2018-09-14T04:59:11.089Z,9.27
2018-09-14T05:01:39.684Z,10.37
2018-09-14T05:04:08.713Z,9.67
2018-09-14T05:06:37.050Z,9.93
2018-09-14T05:09:06.882Z,11.43
2018-09-14T05:11:35.488Z,11.07
2018-09-14T05:14:03.794Z,9.63
2018-09-14T05:16:32.221Z,9.27
2018-09-14T05:19:00.610Z,9.27
2018-09-14T05:21:28.955Z,8.90
2018-09-14T05:23:57.797Z,8.50
2018-09-14T05:26:26.208Z,8.80
2018-09-14T05:28:54.844Z,7.60
2018-09-14T05:31:23.786Z,8.43
2018-09-14T05:33:52.125Z,7.70
2018-09-14T05:36:20.513Z,8.80
2018-09-14T05:38:48.760Z,8.07
2018-09-14T05:41:22.625Z,8.50
2018-09-14T05:43:51.215Z,7.30
2018-09-14T05:46:19.699Z,7.00
2018-09-14T05:48:48.329Z,7.00
2018-09-14T05:51:17.102Z,7.10
2018-09-14T05:53:45.687Z,6.43
2018-09-14T05:56:14.005Z,6.53
2018-09-14T05:58:42.506Z,27.43
2018-09-14T06:01:11.165Z,19.60
2018-09-14T06:03:39.759Z,8.50
2018-09-14T06:06:08.072Z,6.70
2018-09-14T06:08:36.921Z,7.07
2018-09-14T06:11:05.188Z,6.53
2018-09-14T06:13:33.481Z,6.90
2018-09-14T06:16:01.904Z,7.13
2018-09-14T06:18:30.479Z,6.70
2018-09-14T06:20:58.873Z,6.23
2018-09-14T06:23:27.346Z,6.13
2018-09-14T06:25:55.698Z,7.00
2018-09-14T06:28:24.141Z,6.30
2018-09-14T06:30:52.585Z,5.73
2018-09-14T06:33:20.910Z,5.53
2018-09-14T06:35:49.436Z,6.20
2018-09-14T06:38:18.908Z,6.30
2018-09-14T06:40:47.286Z,6.13
2018-09-14T06:43:16.284Z,6.10
2018-09-14T06:45:44.689Z,6.27
2018-09-14T06:48:13.375Z,6.13
2018-09-14T06:50:41.772Z,6.73
2018-09-14T06:53:10.156Z,5.77
2018-09-14T06:55:38.490Z,5.63
2018-09-14T06:58:07.037Z,5.37
2018-09-14T07:00:36.073Z,7.57
2018-09-14T07:03:04.664Z,5.77
2018-09-14T07:05:33.235Z,6.17
2018-09-14T07:08:01.766Z,5.80
2018-09-14T07:10:30.366Z,5.50
2018-09-14T07:12:58.804Z,5.57
2018-09-14T07:15:29.627Z,6.10
2018-09-14T07:17:58.208Z,5.43
2018-09-14T07:20:29.085Z,5.87
2018-09-14T07:23:08.459Z,5.87
2018-09-14T07:25:37.158Z,5.20
2018-09-14T07:28:05.648Z,4.90
2018-09-14T07:30:34.608Z,5.13
2018-09-14T07:33:04.960Z,5.40
2018-09-14T07:35:33.511Z,5.33
2018-09-14T07:38:01.823Z,4.90
2018-09-14T07:40:33.249Z,5.90
2018-09-14T07:43:01.589Z,5.27
2018-09-14T07:45:30.033Z,5.00
2018-09-14T07:47:58.427Z,5.37
2018-09-14T07:50:26.696Z,8.60
2018-09-14T07:52:55.073Z,8.53
2018-09-14T07:55:23.616Z,5.30
2018-09-14T07:57:52.667Z,5.67
2018-09-14T08:00:21.358Z,4.80
2018-09-14T08:02:50.802Z,5.63
2018-09-14T08:08:07.306Z,4.40
2018-09-14T08:10:36.479Z,3.73
2018-09-14T08:13:04.946Z,3.97
2018-09-14T08:15:34.149Z,4.07
2018-09-14T08:18:03.187Z,4.33
2018-09-14T08:20:32.680Z,4.83
2018-09-14T08:23:02.748Z,3.93
2018-09-14T08:25:31.525Z,4.00
2018-09-14T08:28:00.477Z,4.60
2018-09-14T08:30:28.833Z,3.80
2018-09-14T08:32:57.271Z,3.93
2018-09-14T08:35:25.514Z,4.47
2018-09-14T08:37:53.848Z,4.47
2018-09-14T08:40:22.250Z,4.40
2018-09-14T08:42:50.866Z,4.00
2018-09-14T08:45:19.349Z,4.30
2018-09-14T08:47:47.932Z,12.80
2018-09-14T08:50:16.324Z,10.20
2018-09-14T08:52:44.942Z,5.37
2018-09-14T08:55:13.539Z,4.80
2018-09-14T08:57:41.984Z,4.67
2018-09-14T09:00:10.575Z,6.10
2018-09-14T09:02:39.163Z,11.23
2018-09-14T09:05:07.911Z,13.20
2018-09-14T09:07:36.860Z,13.30
2018-09-14T09:10:05.284Z,20.00
2018-09-14T09:12:34.529Z,10.00
2018-09-14T09:15:06.956Z,9.20
2018-09-14T09:17:35.358Z,5.10
2018-09-14T09:20:04.606Z,4.17
2018-09-14T09:22:33.175Z,4.30
2018-09-14T09:25:02.525Z,3.67
2018-09-14T09:27:31.018Z,3.40
2018-09-14T09:29:59.439Z,4.27
2018-09-14T09:32:28.018Z,3.63
2018-09-14T09:34:56.451Z,4.10
2018-09-14T09:37:24.984Z,5.30
2018-09-14T09:39:54.635Z,6.30
2018-09-14T09:42:23.191Z,4.63
2018-09-14T09:44:51.758Z,3.83
2018-09-14T09:47:20.208Z,4.47
2018-09-14T09:49:49.415Z,3.73
2018-09-14T09:52:18.092Z,4.63
2018-09-14T09:54:46.594Z,6.23
2018-09-14T09:57:14.854Z,4.60
2018-09-14T09:59:43.327Z,3.83
2018-09-14T10:02:17.364Z,4.10
2018-09-14T10:04:51.121Z,3.40
2018-09-14T10:07:19.406Z,3.70
2018-09-14T10:09:47.784Z,4.00
2018-09-14T10:12:16.100Z,4.10
2018-09-14T10:14:44.483Z,3.77
2018-09-14T10:17:12.822Z,3.73
2018-09-14T10:19:41.343Z,6.03
2018-09-14T10:22:10.754Z,4.30
2018-09-14T10:24:39.004Z,4.03
2018-09-14T10:27:08.118Z,4.47
2018-09-14T10:29:36.463Z,7.63
2018-09-14T10:32:04.847Z,5.20
2018-09-14T10:34:33.125Z,4.30
2018-09-14T10:37:01.658Z,5.07
2018-09-14T10:39:30.030Z,6.27
2018-09-14T10:41:58.768Z,4.10
2018-09-14T10:44:27.442Z,3.90
2018-09-14T10:46:56.021Z,3.93
2018-09-14T10:49:24.617Z,4.20
2018-09-14T10:51:53.021Z,5.37
2018-09-14T10:54:21.659Z,5.97
2018-09-14T10:56:50.224Z,11.00
2018-09-14T10:59:18.466Z,15.20
2018-09-14T11:01:46.864Z,11.83
2018-09-14T11:04:15.717Z,5.97
2018-09-14T11:06:44.235Z,5.50
2018-09-14T11:09:14.177Z,4.93
2018-09-14T11:11:43.027Z,4.57
2018-09-14T11:14:12.288Z,4.17
2018-09-14T11:16:41.624Z,3.43
2018-09-14T11:19:10.284Z,3.73
2018-09-14T11:21:39.318Z,3.87
2018-09-14T11:24:08.473Z,4.37
2018-09-14T11:26:37.473Z,4.17
2018-09-14T11:29:05.930Z,6.23
2018-09-14T11:31:34.373Z,9.00
2018-09-14T11:34:03.038Z,5.70
2018-09-14T11:36:32.155Z,4.70
2018-09-14T11:39:01.117Z,4.13
2018-09-14T11:41:29.337Z,3.90
2018-09-14T11:43:57.998Z,4.87
2018-09-14T11:46:26.276Z,4.80
2018-09-14T11:48:54.904Z,4.63
2018-09-14T11:51:24.483Z,4.00
2018-09-14T11:53:53.478Z,4.37
2018-09-14T11:56:21.949Z,4.00
2018-09-14T11:58:51.573Z,3.63
2018-09-14T12:01:20.045Z,3.60
2018-09-14T12:03:48.420Z,3.70
2018-09-14T12:06:16.893Z,4.10
2018-09-14T12:08:45.407Z,4.17
2018-09-14T12:11:13.932Z,3.50
2018-09-14T12:13:42.579Z,10.20
2018-09-14T12:16:11.038Z,19.60
2018-09-14T12:18:39.659Z,6.93
2018-09-14T12:21:08.074Z,4.50
2018-09-14T12:23:36.655Z,6.30
2018-09-14T12:26:05.046Z,9.17
2018-09-14T12:28:33.751Z,14.37
2018-09-14T12:31:02.100Z,5.70
2018-09-14T12:33:30.830Z,5.20
2018-09-14T12:35:59.519Z,4.30
2018-09-14T12:38:28.802Z,5.30
2018-09-14T12:40:57.491Z,4.50
2018-09-14T12:43:26.145Z,4.80
2018-09-14T12:45:54.603Z,6.73
2018-09-14T12:48:23.068Z,4.23
2018-09-14T12:50:52.006Z,3.43
2018-09-14T12:53:21.416Z,2.90
2018-09-14T12:55:49.891Z,3.70
2018-09-14T12:58:21.651Z,3.27
2018-09-14T13:00:50.313Z,3.53
2018-09-14T13:03:19.015Z,8.83
2018-09-14T13:05:48.423Z,5.57
2018-09-14T13:08:17.587Z,12.43
2018-09-14T13:10:46.195Z,13.57
2018-09-14T13:13:15.192Z,7.60
2018-09-14T13:15:43.760Z,6.60
2018-09-14T13:18:12.474Z,5.50
2018-09-14T13:20:40.905Z,3.43
2018-09-14T13:23:09.986Z,3.00
2018-09-14T13:25:38.696Z,3.27
2018-09-14T13:28:08.540Z,3.00
2018-09-14T13:30:37.286Z,2.50
2018-09-14T13:33:05.762Z,2.60
2018-09-14T13:35:34.494Z,2.27
2018-09-14T13:38:03.288Z,3.10
2018-09-14T13:40:38.429Z,5.70
2018-09-14T13:43:07.631Z,4.37
2018-09-14T13:45:36.410Z,3.20
2018-09-14T13:48:04.803Z,2.40
2018-09-14T13:53:16.765Z,2.67
2018-09-14T13:55:46.005Z,2.50
2018-09-14T13:58:15.752Z,3.10
2018-09-14T14:00:44.541Z,3.00
2018-09-14T14:03:12.948Z,3.13
2018-09-14T14:05:42.921Z,2.80
2018-09-14T14:08:11.343Z,3.27
2018-09-14T14:10:43.413Z,2.70
2018-09-14T14:13:11.850Z,2.53
2018-09-14T14:15:40.481Z,2.50
2018-09-14T14:18:08.992Z,2.00
2018-09-14T14:20:37.805Z,2.23
2018-09-14T14:23:06.341Z,2.03
2018-09-14T14:25:35.109Z,1.70
2018-09-14T14:28:04.236Z,2.30
2018-09-14T14:30:33.966Z,10.93
2018-09-14T14:33:27.718Z,8.83
2018-09-14T14:35:57.506Z,4.60
2018-09-14T14:38:25.806Z,3.80
2018-09-14T14:40:54.568Z,3.50
2018-09-14T14:43:23.394Z,2.77
2018-09-14T14:45:52.365Z,2.50
2018-09-14T14:48:20.943Z,2.43
2018-09-14T14:50:49.903Z,2.90
2018-09-14T14:53:18.426Z,3.37
2018-09-14T14:55:48.129Z,3.33
2018-09-14T14:58:18.429Z,2.87
2018-09-14T15:01:00.579Z,3.53
2018-09-14T15:03:31.427Z,2.90
2018-09-14T15:06:00.609Z,3.57
2018-09-14T15:08:29.313Z,2.57
2018-09-14T15:10:58.469Z,2.30
2018-09-14T15:13:26.878Z,2.63
2018-09-14T15:18:40.675Z,2.70
2018-09-14T15:21:09.602Z,3.53
2018-09-14T15:23:42.822Z,8.70
2018-09-14T15:26:11.234Z,9.80
2018-09-14T15:28:40.625Z,7.50
2018-09-14T15:31:09.092Z,3.53
2018-09-14T15:33:39.802Z,3.23
2018-09-14T15:36:09.330Z,3.23
2018-09-14T15:38:40.364Z,3.57
2018-09-14T15:41:09.192Z,3.00
2018-09-14T15:43:37.517Z,3.47
2018-09-14T15:46:05.918Z,2.93
2018-09-14T15:48:34.397Z,2.80
2018-09-14T15:53:49.694Z,2.40
2018-09-14T15:56:18.076Z,2.23
2018-09-14T15:58:46.607Z,2.30
2018-09-14T16:01:15.038Z,2.50
2018-09-14T16:03:43.538Z,2.40
2018-09-14T16:06:14.281Z,2.30
2018-09-14T16:08:43.518Z,3.60
2018-09-14T16:11:12.144Z,3.53
2018-09-14T16:13:45.751Z,4.80
2018-09-14T16:16:14.093Z,3.30
2018-09-14T16:18:43.580Z,11.57
2018-09-14T16:21:13.087Z,10.37
2018-09-14T16:23:41.597Z,3.63
2018-09-14T16:26:10.548Z,3.07
2018-09-14T16:28:39.356Z,3.10
2018-09-14T16:31:07.878Z,2.43
2018-09-14T16:33:36.251Z,3.10
2018-09-14T16:36:04.929Z,2.50
2018-09-14T16:38:33.427Z,2.50
2018-09-14T16:41:02.318Z,3.03
2018-09-14T16:43:30.704Z,2.80
2018-09-14T16:45:59.084Z,3.10
2018-09-14T16:48:28.859Z,2.60
2018-09-14T16:50:58.242Z,2.93
2018-09-14T16:53:27.140Z,3.23
2018-09-14T16:55:55.634Z,3.43
2018-09-14T16:58:24.915Z,6.47
2018-09-14T17:00:57.227Z,6.30
2018-09-14T17:03:26.881Z,5.80
2018-09-14T17:06:01.196Z,5.93
2018-09-14T17:08:29.659Z,4.40
2018-09-14T17:11:01.733Z,4.57
2018-09-14T17:13:31.661Z,7.93
2018-09-14T17:16:00.215Z,9.93
2018-09-14T17:18:28.644Z,8.60
2018-09-14T17:20:56.982Z,6.67
2018-09-14T17:23:25.411Z,10.63
2018-09-14T17:25:53.817Z,10.03
2018-09-14T17:28:22.628Z,14.80
2018-09-14T17:30:51.104Z,7.37
2018-09-14T17:33:19.561Z,5.60
2018-09-14T17:35:51.557Z,4.93
2018-09-14T17:38:20.290Z,5.03
2018-09-14T17:40:48.568Z,4.60
2018-09-14T17:43:17.167Z,4.00
2018-09-14T17:45:45.658Z,4.20
2018-09-14T17:48:14.138Z,3.73
2018-09-14T17:50:42.868Z,4.53
2018-09-14T17:53:11.168Z,4.73
2018-09-14T17:55:40.350Z,6.33
2018-09-14T17:58:08.890Z,3.80
2018-09-14T18:00:45.414Z,4.40
2018-09-14T18:03:14.057Z,4.10
2018-09-14T18:05:44.615Z,4.00
2018-09-14T18:08:13.373Z,4.13
2018-09-14T18:10:42.786Z,4.63
2018-09-14T18:13:12.579Z,4.70
2018-09-14T18:15:41.227Z,4.30
2018-09-14T18:18:09.717Z,4.00
2018-09-14T18:20:38.195Z,3.60
2018-09-14T18:23:09.321Z,5.00
2018-09-14T18:25:37.988Z,20.43
2018-09-14T18:28:06.616Z,13.50
2018-09-14T18:30:36.203Z,7.87
2018-09-14T18:33:09.054Z,6.77
2018-09-14T18:35:43.294Z,6.97
2018-09-14T18:38:11.937Z,5.63
2018-09-14T18:43:22.179Z,5.50
2018-09-14T18:45:54.524Z,5.50
2018-09-14T18:48:24.751Z,13.43
2018-09-14T18:50:53.675Z,18.77
2018-09-14T18:53:23.436Z,13.53
2018-09-14T18:55:52.620Z,13.60
2018-09-14T18:58:21.220Z,13.83
2018-09-14T19:00:49.917Z,12.00
2018-09-14T19:03:18.693Z,10.33
2018-09-14T19:05:48.820Z,11.33
2018-09-14T19:08:18.761Z,7.77
2018-09-14T19:10:47.533Z,7.67
2018-09-14T19:13:16.181Z,14.67
2018-09-14T19:15:44.841Z,13.93
2018-09-14T19:18:13.789Z,16.90
2018-09-14T19:20:46.001Z,14.00
2018-09-14T19:23:15.297Z,12.20
2018-09-14T19:25:44.247Z,13.73
2018-09-14T19:28:13.089Z,11.57
2018-09-14T19:30:45.638Z,8.40
2018-09-14T19:33:16.084Z,8.47
2018-09-14T19:35:45.911Z,7.43
2018-09-14T19:38:15.461Z,11.37
2018-09-14T19:40:44.466Z,8.50
2018-09-14T19:43:13.162Z,7.13
2018-09-14T19:45:42.189Z,5.83
2018-09-14T19:48:12.687Z,17.07
2018-09-14T19:50:41.596Z,16.73
2018-09-14T19:53:10.545Z,22.70
2018-09-14T19:55:40.920Z,10.30
2018-09-14T19:58:09.988Z,6.53
2018-09-14T20:00:39.041Z,6.37
2018-09-14T20:03:07.689Z,7.33
2018-09-14T20:05:47.860Z,7.10
2018-09-14T20:08:17.805Z,6.33
2018-09-14T20:10:46.345Z,7.20
2018-09-14T20:13:14.961Z,8.80
2018-09-14T20:15:43.579Z,8.93
2018-09-14T20:18:21.239Z,7.60
2018-09-14T20:20:49.825Z,6.60
2018-09-14T20:23:19.154Z,6.13
2018-09-14T20:25:47.791Z,5.57
2018-09-14T20:28:16.946Z,6.30
2018-09-14T20:30:45.783Z,5.70
2018-09-14T20:33:14.153Z,6.20
2018-09-14T20:35:42.722Z,5.73
2018-09-14T20:38:11.147Z,5.20
2018-09-14T20:40:43.479Z,5.53
2018-09-14T20:43:13.041Z,5.03
2018-09-14T20:45:41.596Z,5.27
2018-09-14T20:48:09.985Z,6.07
2018-09-14T20:50:38.694Z,7.17
2018-09-14T20:53:07.480Z,9.30
2018-09-14T20:55:35.859Z,12.13
2018-09-14T20:58:04.264Z,13.63
2018-09-14T21:00:34.229Z,9.80
2018-09-14T21:03:02.839Z,9.03
2018-09-14T21:05:31.390Z,7.27
2018-09-14T21:07:59.964Z,6.83
2018-09-14T21:10:28.839Z,6.20
2018-09-14T21:12:57.286Z,6.40
2018-09-14T21:15:26.682Z,5.90
2018-09-14T21:17:55.914Z,5.60
2018-09-14T21:20:24.717Z,5.40
2018-09-14T21:22:54.135Z,5.47
2018-09-14T21:25:23.181Z,5.70
2018-09-14T21:27:52.023Z,6.20
2018-09-14T21:30:20.640Z,6.47
2018-09-14T21:32:50.031Z,6.00
2018-09-14T21:35:18.481Z,8.97
2018-09-14T21:37:46.894Z,8.73
2018-09-14T21:40:16.198Z,8.70
2018-09-14T21:42:44.868Z,6.43
2018-09-14T21:45:13.251Z,5.70
2018-09-14T21:47:41.675Z,5.97
2018-09-14T21:50:10.014Z,5.90
2018-09-14T21:52:40.309Z,5.53
2018-09-14T21:55:15.355Z,5.90
2018-09-14T21:57:44.286Z,5.33
2018-09-14T22:00:18.017Z,5.30
2018-09-14T22:02:46.556Z,5.33
2018-09-14T22:05:15.459Z,15.00
2018-09-14T22:07:44.124Z,28.80
2018-09-14T22:10:12.881Z,18.33
2018-09-14T22:12:41.825Z,9.43
2018-09-14T22:15:10.363Z,6.77
2018-09-14T22:17:38.953Z,7.13
2018-09-14T22:20:07.750Z,5.70
2018-09-14T22:22:36.348Z,5.50
2018-09-14T22:25:05.427Z,5.70
2018-09-14T22:27:34.213Z,6.47
2018-09-14T22:30:02.512Z,5.40
2018-09-14T22:32:31.620Z,5.47
2018-09-14T22:35:00.019Z,5.90
2018-09-14T22:37:34.928Z,5.37
2018-09-14T22:40:03.485Z,4.90
2018-09-14T22:42:31.822Z,4.93
2018-09-14T22:45:00.159Z,5.60
2018-09-14T22:47:28.675Z,5.03
2018-09-14T22:49:56.913Z,6.33
2018-09-14T22:52:25.197Z,5.50
2018-09-14T22:54:53.443Z,6.20
2018-09-14T22:57:21.791Z,5.10
2018-09-14T22:59:50.245Z,5.40
2018-09-14T23:02:19.122Z,6.10
2018-09-14T23:04:47.714Z,5.90
2018-09-14T23:07:16.077Z,5.80
2018-09-14T23:09:44.460Z,5.70
2018-09-14T23:12:12.919Z,5.03
2018-09-14T23:14:41.282Z,5.60
2018-09-14T23:17:09.663Z,5.40
2018-09-14T23:19:41.173Z,4.73
2018-09-14T23:22:09.737Z,6.10
2018-09-14T23:24:38.165Z,5.77
2018-09-14T23:27:06.660Z,5.33
2018-09-14T23:29:35.077Z,5.63
2018-09-14T23:32:03.405Z,5.10
2018-09-14T23:34:31.795Z,5.17
2018-09-14T23:37:00.113Z,4.83
2018-09-14T23:39:28.578Z,5.13
2018-09-14T23:41:58.319Z,5.03
2018-09-14T23:44:26.683Z,5.10
2018-09-14T23:46:55.025Z,4.90
2018-09-14T23:49:23.513Z,5.50
2018-09-14T23:51:51.960Z,5.27
2018-09-14T23:54:20.214Z,5.53
2018-09-14T23:56:49.654Z,5.80
2018-09-14T23:59:17.981Z,5.77
